sensor_id;sensor_type;location;lat;lon;timestamp;P1;durP1;ratioP1;P2;durP2;ratioP2
32292;SDS011;43233;48.608;8.838;2023-09-08T00:02:22;6.03;;;5.43;;
32292;SDS011;43233;48.608;8.838;2023-09-08T00:04:49;6.47;;;5.50;;
32292;SDS011;43233;48.608;8.838;2023-09-08T00:07:14;8.00;;;5.13;;
32292;SDS011;43233;48.608;8.838;2023-09-08T00:09:40;6.53;;;5.57;;
32292;SDS011;43233;48.608;8.838;2023-09-08T00:12:06;6.40;;;5.80;;
32292;SDS011;43233;48.608;8.838;2023-09-08T00:14:31;9.83;;;5.77;;
32292;SDS011;43233;48.608;8.838;2023-09-08T00:16:57;6.87;;;6.17;;
32292;SDS011;43233;48.608;8.838;2023-09-08T00:19:22;7.03;;;5.63;;
32292;SDS011;43233;48.608;8.838;2023-09-08T00:21:48;8.23;;;5.33;;
32292;SDS011;43233;48.608;8.838;2023-09-08T00:24:14;6.87;;;5.10;;
32292;SDS011;43233;48.608;8.838;2023-09-08T00:26:40;8.13;;;6.33;;
32292;SDS011;43233;48.608;8.838;2023-09-08T00:29:06;11.10;;;6.07;;
32292;SDS011;43233;48.608;8.838;2023-09-08T00:31:31;9.10;;;6.93;;
32292;SDS011;43233;48.608;8.838;2023-09-08T00:33:58;6.67;;;6.07;;
32292;SDS011;43233;48.608;8.838;2023-09-08T00:36:23;9.60;;;6.07;;
32292;SDS011;43233;48.608;8.838;2023-09-08T00:38:49;6.93;;;6.33;;
32292;SDS011;43233;48.608;8.838;2023-09-08T00:41:14;9.13;;;6.10;;
32292;SDS011;43233;48.608;8.838;2023-09-08T00:43:40;8.03;;;5.60;;
32292;SDS011;43233;48.608;8.838;2023-09-08T00:46:06;6.80;;;6.10;;
32292;SDS011;43233;48.608;8.838;2023-09-08T00:48:33;7.33;;;6.50;;
32292;SDS011;43233;48.608;8.838;2023-09-08T00:51:00;7.23;;;5.47;;
32292;SDS011;43233;48.608;8.838;2023-09-08T00:53:26;5.87;;;5.27;;
32292;SDS011;43233;48.608;8.838;2023-09-08T00:55:52;6.20;;;5.60;;
32292;SDS011;43233;48.608;8.838;2023-09-08T00:58:18;6.73;;;5.90;;
32292;SDS011;43233;48.608;8.838;2023-09-08T01:00:43;6.53;;;5.47;;
32292;SDS011;43233;48.608;8.838;2023-09-08T01:03:10;6.07;;;5.47;;
32292;SDS011;43233;48.608;8.838;2023-09-08T01:05:36;12.23;;;6.17;;
32292;SDS011;43233;48.608;8.838;2023-09-08T01:08:02;5.47;;;5.03;;
32292;SDS011;43233;48.608;8.838;2023-09-08T01:10:29;6.60;;;6.00;;
32292;SDS011;43233;48.608;8.838;2023-09-08T01:12:54;9.40;;;6.60;;
32292;SDS011;43233;48.608;8.838;2023-09-08T01:15:20;9.23;;;5.70;;
32292;SDS011;43233;48.608;8.838;2023-09-08T01:17:46;9.10;;;6.00;;
32292;SDS011;43233;48.608;8.838;2023-09-08T01:23:02;6.30;;;5.70;;
32292;SDS011;43233;48.608;8.838;2023-09-08T01:25:39;11.73;;;6.03;;
32292;SDS011;43233;48.608;8.838;2023-09-08T01:28:11;11.43;;;6.20;;
32292;SDS011;43233;48.608;8.838;2023-09-08T01:30:38;9.90;;;6.00;;
32292;SDS011;43233;48.608;8.838;2023-09-08T01:33:04;6.23;;;5.63;;
32292;SDS011;43233;48.608;8.838;2023-09-08T01:35:31;8.93;;;6.93;;
32292;SDS011;43233;48.608;8.838;2023-09-08T01:37:57;7.10;;;6.43;;
32292;SDS011;43233;48.608;8.838;2023-09-08T01:40:23;14.10;;;6.80;;
32292;SDS011;43233;48.608;8.838;2023-09-08T01:42:48;8.77;;;7.33;;
32292;SDS011;43233;48.608;8.838;2023-09-08T01:45:14;7.60;;;6.87;;
32292;SDS011;43233;48.608;8.838;2023-09-08T01:47:40;8.10;;;6.50;;
32292;SDS011;43233;48.608;8.838;2023-09-08T01:50:05;10.70;;;7.37;;
32292;SDS011;43233;48.608;8.838;2023-09-08T01:52:31;12.23;;;6.93;;
32292;SDS011;43233;48.608;8.838;2023-09-08T01:54:57;11.13;;;6.83;;
32292;SDS011;43233;48.608;8.838;2023-09-08T01:57:22;8.07;;;7.00;;
32292;SDS011;43233;48.608;8.838;2023-09-08T01:59:48;7.70;;;6.60;;
32292;SDS011;43233;48.608;8.838;2023-09-08T02:02:14;10.03;;;7.00;;
32292;SDS011;43233;48.608;8.838;2023-09-08T02:04:40;8.40;;;7.23;;
32292;SDS011;43233;48.608;8.838;2023-09-08T02:07:05;9.57;;;7.67;;
32292;SDS011;43233;48.608;8.838;2023-09-08T02:09:32;9.60;;;6.80;;
32292;SDS011;43233;48.608;8.838;2023-09-08T02:12:02;11.33;;;8.13;;
32292;SDS011;43233;48.608;8.838;2023-09-08T02:14:28;8.37;;;7.40;;
32292;SDS011;43233;48.608;8.838;2023-09-08T02:16:54;7.73;;;6.80;;
32292;SDS011;43233;48.608;8.838;2023-09-08T02:19:20;8.40;;;6.67;;
32292;SDS011;43233;48.608;8.838;2023-09-08T02:21:46;7.30;;;6.50;;
32292;SDS011;43233;48.608;8.838;2023-09-08T02:24:11;7.93;;;7.13;;
32292;SDS011;43233;48.608;8.838;2023-09-08T02:26:38;8.80;;;7.33;;
32292;SDS011;43233;48.608;8.838;2023-09-08T02:29:04;9.00;;;7.20;;
32292;SDS011;43233;48.608;8.838;2023-09-08T02:31:29;12.03;;;7.00;;
32292;SDS011;43233;48.608;8.838;2023-09-08T02:33:55;8.70;;;6.90;;
32292;SDS011;43233;48.608;8.838;2023-09-08T02:36:21;6.30;;;5.70;;
32292;SDS011;43233;48.608;8.838;2023-09-08T02:38:53;11.33;;;7.40;;
32292;SDS011;43233;48.608;8.838;2023-09-08T02:41:19;8.23;;;6.37;;
32292;SDS011;43233;48.608;8.838;2023-09-08T02:43:46;7.13;;;6.43;;
32292;SDS011;43233;48.608;8.838;2023-09-08T02:46:12;7.83;;;7.00;;
32292;SDS011;43233;48.608;8.838;2023-09-08T02:48:38;9.43;;;6.90;;
32292;SDS011;43233;48.608;8.838;2023-09-08T02:51:03;8.10;;;7.30;;
32292;SDS011;43233;48.608;8.838;2023-09-08T02:53:29;7.40;;;6.70;;
32292;SDS011;43233;48.608;8.838;2023-09-08T02:55:55;6.50;;;5.90;;
32292;SDS011;43233;48.608;8.838;2023-09-08T02:58:21;7.50;;;6.57;;
32292;SDS011;43233;48.608;8.838;2023-09-08T03:00:47;7.10;;;6.43;;
32292;SDS011;43233;48.608;8.838;2023-09-08T03:03:12;10.10;;;7.60;;
32292;SDS011;43233;48.608;8.838;2023-09-08T03:05:38;8.27;;;7.53;;
32292;SDS011;43233;48.608;8.838;2023-09-08T03:08:04;12.90;;;6.67;;
32292;SDS011;43233;48.608;8.838;2023-09-08T03:10:33;12.47;;;8.20;;
32292;SDS011;43233;48.608;8.838;2023-09-08T03:13:02;15.43;;;7.40;;
32292;SDS011;43233;48.608;8.838;2023-09-08T03:15:28;8.43;;;6.93;;
32292;SDS011;43233;48.608;8.838;2023-09-08T03:17:54;7.93;;;6.67;;
32292;SDS011;43233;48.608;8.838;2023-09-08T03:20:20;8.03;;;7.10;;
32292;SDS011;43233;48.608;8.838;2023-09-08T03:22:46;8.87;;;6.90;;
32292;SDS011;43233;48.608;8.838;2023-09-08T03:25:14;8.40;;;7.47;;
32292;SDS011;43233;48.608;8.838;2023-09-08T03:27:40;10.43;;;7.30;;
32292;SDS011;43233;48.608;8.838;2023-09-08T03:30:06;8.57;;;7.17;;
32292;SDS011;43233;48.608;8.838;2023-09-08T03:32:32;8.00;;;7.20;;
32292;SDS011;43233;48.608;8.838;2023-09-08T03:34:58;8.43;;;7.10;;
32292;SDS011;43233;48.608;8.838;2023-09-08T03:37:24;7.73;;;7.03;;
32292;SDS011;43233;48.608;8.838;2023-09-08T03:39:51;7.93;;;6.97;;
32292;SDS011;43233;48.608;8.838;2023-09-08T03:42:17;8.70;;;7.80;;
32292;SDS011;43233;48.608;8.838;2023-09-08T03:44:43;9.17;;;7.60;;
32292;SDS011;43233;48.608;8.838;2023-09-08T03:47:08;13.13;;;8.07;;
32292;SDS011;43233;48.608;8.838;2023-09-08T03:49:34;10.53;;;7.60;;
32292;SDS011;43233;48.608;8.838;2023-09-08T03:51:59;8.53;;;7.63;;
32292;SDS011;43233;48.608;8.838;2023-09-08T03:54:25;11.63;;;7.37;;
32292;SDS011;43233;48.608;8.838;2023-09-08T03:56:51;9.87;;;8.60;;
32292;SDS011;43233;48.608;8.838;2023-09-08T03:59:16;12.27;;;7.87;;
32292;SDS011;43233;48.608;8.838;2023-09-08T04:01:42;11.17;;;8.23;;
32292;SDS011;43233;48.608;8.838;2023-09-08T04:04:07;8.57;;;7.77;;
32292;SDS011;43233;48.608;8.838;2023-09-08T04:06:33;9.93;;;7.43;;
32292;SDS011;43233;48.608;8.838;2023-09-08T04:08:59;9.20;;;8.30;;
32292;SDS011;43233;48.608;8.838;2023-09-08T04:11:25;10.97;;;8.53;;
32292;SDS011;43233;48.608;8.838;2023-09-08T04:13:51;8.07;;;7.23;;
32292;SDS011;43233;48.608;8.838;2023-09-08T04:16:16;15.10;;;6.30;;
32292;SDS011;43233;48.608;8.838;2023-09-08T04:18:42;9.47;;;8.23;;
32292;SDS011;43233;48.608;8.838;2023-09-08T04:21:08;7.90;;;7.10;;
32292;SDS011;43233;48.608;8.838;2023-09-08T04:23:34;7.93;;;7.13;;
32292;SDS011;43233;48.608;8.838;2023-09-08T04:25:59;7.83;;;7.00;;
32292;SDS011;43233;48.608;8.838;2023-09-08T04:28:25;10.30;;;7.57;;
32292;SDS011;43233;48.608;8.838;2023-09-08T04:30:50;8.80;;;7.90;;
32292;SDS011;43233;48.608;8.838;2023-09-08T04:33:16;7.90;;;7.10;;
32292;SDS011;43233;48.608;8.838;2023-09-08T04:35:42;10.47;;;7.27;;
32292;SDS011;43233;48.608;8.838;2023-09-08T04:38:08;12.43;;;8.27;;
32292;SDS011;43233;48.608;8.838;2023-09-08T04:40:34;8.20;;;7.40;;
32292;SDS011;43233;48.608;8.838;2023-09-08T04:42:59;8.33;;;7.53;;
32292;SDS011;43233;48.608;8.838;2023-09-08T04:45:25;9.40;;;7.83;;
32292;SDS011;43233;48.608;8.838;2023-09-08T04:47:51;8.10;;;7.10;;
32292;SDS011;43233;48.608;8.838;2023-09-08T04:50:17;7.20;;;6.50;;
32292;SDS011;43233;48.608;8.838;2023-09-08T04:52:43;11.20;;;8.10;;
32292;SDS011;43233;48.608;8.838;2023-09-08T04:55:09;7.97;;;7.23;;
32292;SDS011;43233;48.608;8.838;2023-09-08T04:57:35;9.60;;;7.60;;
32292;SDS011;43233;48.608;8.838;2023-09-08T05:00:01;8.80;;;7.73;;
32292;SDS011;43233;48.608;8.838;2023-09-08T05:02:27;9.00;;;7.70;;
32292;SDS011;43233;48.608;8.838;2023-09-08T05:04:52;9.47;;;7.40;;
32292;SDS011;43233;48.608;8.838;2023-09-08T05:07:18;12.43;;;7.77;;
32292;SDS011;43233;48.608;8.838;2023-09-08T05:09:44;10.90;;;8.10;;
32292;SDS011;43233;48.608;8.838;2023-09-08T05:12:10;9.07;;;7.13;;
32292;SDS011;43233;48.608;8.838;2023-09-08T05:14:36;9.83;;;7.80;;
32292;SDS011;43233;48.608;8.838;2023-09-08T05:17:01;13.00;;;7.70;;
32292;SDS011;43233;48.608;8.838;2023-09-08T05:19:27;8.90;;;8.00;;
32292;SDS011;43233;48.608;8.838;2023-09-08T05:21:54;8.87;;;7.97;;
32292;SDS011;43233;48.608;8.838;2023-09-08T05:24:19;11.90;;;8.23;;
32292;SDS011;43233;48.608;8.838;2023-09-08T05:26:45;10.03;;;7.47;;
32292;SDS011;43233;48.608;8.838;2023-09-08T05:29:11;12.87;;;8.73;;
32292;SDS011;43233;48.608;8.838;2023-09-08T05:31:37;12.17;;;9.20;;
32292;SDS011;43233;48.608;8.838;2023-09-08T05:34:03;11.23;;;8.90;;
32292;SDS011;43233;48.608;8.838;2023-09-08T05:36:29;8.50;;;7.60;;
32292;SDS011;43233;48.608;8.838;2023-09-08T05:38:56;13.10;;;7.23;;
32292;SDS011;43233;48.608;8.838;2023-09-08T05:41:22;8.40;;;7.60;;
32292;SDS011;43233;48.608;8.838;2023-09-08T05:43:47;9.30;;;8.00;;
32292;SDS011;43233;48.608;8.838;2023-09-08T05:46:13;12.93;;;8.37;;
32292;SDS011;43233;48.608;8.838;2023-09-08T05:48:39;11.03;;;9.80;;
32292;SDS011;43233;48.608;8.838;2023-09-08T05:51:05;12.13;;;9.03;;
32292;SDS011;43233;48.608;8.838;2023-09-08T05:53:31;10.40;;;9.30;;
32292;SDS011;43233;48.608;8.838;2023-09-08T05:55:58;11.80;;;9.70;;
32292;SDS011;43233;48.608;8.838;2023-09-08T05:58:24;11.70;;;10.17;;
32292;SDS011;43233;48.608;8.838;2023-09-08T06:00:52;10.90;;;9.13;;
32292;SDS011;43233;48.608;8.838;2023-09-08T06:03:18;9.80;;;8.80;;
32292;SDS011;43233;48.608;8.838;2023-09-08T06:05:44;12.20;;;9.50;;
32292;SDS011;43233;48.608;8.838;2023-09-08T06:08:10;9.43;;;8.33;;
32292;SDS011;43233;48.608;8.838;2023-09-08T06:10:35;11.30;;;9.20;;
32292;SDS011;43233;48.608;8.838;2023-09-08T06:13:02;10.37;;;9.27;;
32292;SDS011;43233;48.608;8.838;2023-09-08T06:15:28;11.03;;;9.13;;
32292;SDS011;43233;48.608;8.838;2023-09-08T06:17:53;13.10;;;9.03;;
32292;SDS011;43233;48.608;8.838;2023-09-08T06:20:19;11.17;;;9.20;;
32292;SDS011;43233;48.608;8.838;2023-09-08T06:22:46;10.23;;;9.13;;
32292;SDS011;43233;48.608;8.838;2023-09-08T06:25:12;14.00;;;9.70;;
32292;SDS011;43233;48.608;8.838;2023-09-08T06:27:37;11.30;;;9.77;;
32292;SDS011;43233;48.608;8.838;2023-09-08T06:30:03;10.80;;;9.70;;
32292;SDS011;43233;48.608;8.838;2023-09-08T06:32:29;11.27;;;9.60;;
32292;SDS011;43233;48.608;8.838;2023-09-08T06:34:55;11.87;;;10.67;;
32292;SDS011;43233;48.608;8.838;2023-09-08T06:37:20;12.90;;;10.53;;
32292;SDS011;43233;48.608;8.838;2023-09-08T06:39:46;13.30;;;9.57;;
32292;SDS011;43233;48.608;8.838;2023-09-08T06:42:12;12.70;;;10.00;;
32292;SDS011;43233;48.608;8.838;2023-09-08T06:44:38;11.07;;;9.00;;
32292;SDS011;43233;48.608;8.838;2023-09-08T06:47:03;10.00;;;9.00;;
32292;SDS011;43233;48.608;8.838;2023-09-08T06:49:31;13.03;;;9.57;;
32292;SDS011;43233;48.608;8.838;2023-09-08T06:51:58;10.00;;;9.00;;
32292;SDS011;43233;48.608;8.838;2023-09-08T06:54:23;18.53;;;9.53;;
32292;SDS011;43233;48.608;8.838;2023-09-08T06:56:49;10.63;;;9.30;;
32292;SDS011;43233;48.608;8.838;2023-09-08T06:59:14;19.20;;;10.90;;
32292;SDS011;43233;48.608;8.838;2023-09-08T07:01:40;11.00;;;8.90;;
32292;SDS011;43233;48.608;8.838;2023-09-08T07:04:06;12.83;;;8.80;;
32292;SDS011;43233;48.608;8.838;2023-09-08T07:06:31;10.10;;;9.10;;
32292;SDS011;43233;48.608;8.838;2023-09-08T07:08:57;10.47;;;7.87;;
32292;SDS011;43233;48.608;8.838;2023-09-08T07:11:23;7.50;;;6.80;;
32292;SDS011;43233;48.608;8.838;2023-09-08T07:13:48;11.10;;;7.00;;
32292;SDS011;43233;48.608;8.838;2023-09-08T07:16:14;7.80;;;7.13;;
32292;SDS011;43233;48.608;8.838;2023-09-08T07:18:39;9.73;;;7.93;;
32292;SDS011;43233;48.608;8.838;2023-09-08T07:21:05;11.40;;;8.13;;
32292;SDS011;43233;48.608;8.838;2023-09-08T07:23:31;13.63;;;8.77;;
32292;SDS011;43233;48.608;8.838;2023-09-08T07:25:57;9.50;;;8.10;;
32292;SDS011;43233;48.608;8.838;2023-09-08T07:28:22;8.10;;;7.07;;
32292;SDS011;43233;48.608;8.838;2023-09-08T07:30:48;8.43;;;7.63;;
32292;SDS011;43233;48.608;8.838;2023-09-08T07:33:14;15.20;;;8.47;;
32292;SDS011;43233;48.608;8.838;2023-09-08T07:35:39;7.47;;;6.30;;
32292;SDS011;43233;48.608;8.838;2023-09-08T07:38:06;8.33;;;7.53;;
32292;SDS011;43233;48.608;8.838;2023-09-08T07:40:32;9.10;;;7.80;;
32292;SDS011;43233;48.608;8.838;2023-09-08T07:42:58;9.23;;;8.20;;
32292;SDS011;43233;48.608;8.838;2023-09-08T07:45:24;16.67;;;10.00;;
32292;SDS011;43233;48.608;8.838;2023-09-08T07:47:50;11.97;;;8.23;;
32292;SDS011;43233;48.608;8.838;2023-09-08T07:50:20;10.40;;;8.07;;
32292;SDS011;43233;48.608;8.838;2023-09-08T07:52:48;11.10;;;8.80;;
32292;SDS011;43233;48.608;8.838;2023-09-08T07:55:15;8.73;;;7.40;;
32292;SDS011;43233;48.608;8.838;2023-09-08T07:57:44;7.57;;;6.87;;
32292;SDS011;43233;48.608;8.838;2023-09-08T08:00:11;7.47;;;6.53;;
32292;SDS011;43233;48.608;8.838;2023-09-08T08:02:45;9.63;;;8.20;;
32292;SDS011;43233;48.608;8.838;2023-09-08T08:05:12;8.70;;;7.90;;
32292;SDS011;43233;48.608;8.838;2023-09-08T08:07:38;9.03;;;7.10;;
32292;SDS011;43233;48.608;8.838;2023-09-08T08:10:08;7.77;;;7.07;;
32292;SDS011;43233;48.608;8.838;2023-09-08T08:12:34;9.80;;;7.07;;
32292;SDS011;43233;48.608;8.838;2023-09-08T08:15:00;10.27;;;6.97;;
32292;SDS011;43233;48.608;8.838;2023-09-08T08:17:26;7.70;;;6.40;;
32292;SDS011;43233;48.608;8.838;2023-09-08T08:19:54;11.10;;;8.00;;
32292;SDS011;43233;48.608;8.838;2023-09-08T08:22:20;8.50;;;7.60;;
32292;SDS011;43233;48.608;8.838;2023-09-08T08:24:46;8.13;;;7.30;;
32292;SDS011;43233;48.608;8.838;2023-09-08T08:27:12;8.13;;;7.37;;
32292;SDS011;43233;48.608;8.838;2023-09-08T08:29:38;11.97;;;7.57;;
32292;SDS011;43233;48.608;8.838;2023-09-08T08:32:05;8.10;;;7.30;;
32292;SDS011;43233;48.608;8.838;2023-09-08T08:34:30;8.77;;;7.03;;
32292;SDS011;43233;48.608;8.838;2023-09-08T08:36:56;8.20;;;7.40;;
32292;SDS011;43233;48.608;8.838;2023-09-08T08:39:23;8.83;;;7.37;;
32292;SDS011;43233;48.608;8.838;2023-09-08T08:41:49;9.80;;;7.37;;
32292;SDS011;43233;48.608;8.838;2023-09-08T08:44:15;7.27;;;6.40;;
32292;SDS011;43233;48.608;8.838;2023-09-08T08:46:43;9.53;;;8.57;;
32292;SDS011;43233;48.608;8.838;2023-09-08T08:49:11;8.30;;;7.50;;
32292;SDS011;43233;48.608;8.838;2023-09-08T08:51:40;7.90;;;7.17;;
32292;SDS011;43233;48.608;8.838;2023-09-08T08:54:11;9.80;;;8.20;;
32292;SDS011;43233;48.608;8.838;2023-09-08T08:56:38;9.83;;;8.13;;
32292;SDS011;43233;48.608;8.838;2023-09-08T08:59:04;7.50;;;6.80;;
32292;SDS011;43233;48.608;8.838;2023-09-08T09:01:31;9.97;;;7.60;;
32292;SDS011;43233;48.608;8.838;2023-09-08T09:03:57;8.63;;;7.83;;
32292;SDS011;43233;48.608;8.838;2023-09-08T09:06:23;10.23;;;7.10;;
32292;SDS011;43233;48.608;8.838;2023-09-08T09:08:49;11.33;;;7.53;;
32292;SDS011;43233;48.608;8.838;2023-09-08T09:11:14;8.27;;;7.47;;
32292;SDS011;43233;48.608;8.838;2023-09-08T09:13:41;15.53;;;7.97;;
32292;SDS011;43233;48.608;8.838;2023-09-08T09:16:06;8.10;;;7.30;;
32292;SDS011;43233;48.608;8.838;2023-09-08T09:18:57;10.53;;;7.93;;
32292;SDS011;43233;48.608;8.838;2023-09-08T09:21:40;8.17;;;7.37;;
32292;SDS011;43233;48.608;8.838;2023-09-08T09:24:19;9.13;;;6.60;;
32292;SDS011;43233;48.608;8.838;2023-09-08T09:27:08;8.13;;;7.33;;
32292;SDS011;43233;48.608;8.838;2023-09-08T09:29:43;9.23;;;7.70;;
32292;SDS011;43233;48.608;8.838;2023-09-08T09:32:13;6.80;;;6.20;;
32292;SDS011;43233;48.608;8.838;2023-09-08T09:34:49;18.93;;;7.97;;
32292;SDS011;43233;48.608;8.838;2023-09-08T09:37:18;12.50;;;9.20;;
32292;SDS011;43233;48.608;8.838;2023-09-08T09:39:48;11.33;;;8.80;;
32292;SDS011;43233;48.608;8.838;2023-09-08T09:42:18;10.60;;;8.47;;
32292;SDS011;43233;48.608;8.838;2023-09-08T09:44:46;9.60;;;7.60;;
32292;SDS011;43233;48.608;8.838;2023-09-08T09:47:21;9.73;;;7.60;;
32292;SDS011;43233;48.608;8.838;2023-09-08T09:49:47;10.37;;;7.70;;
32292;SDS011;43233;48.608;8.838;2023-09-08T09:52:14;10.10;;;7.00;;
32292;SDS011;43233;48.608;8.838;2023-09-08T09:54:45;7.70;;;6.90;;
32292;SDS011;43233;48.608;8.838;2023-09-08T09:57:13;9.40;;;6.90;;
32292;SDS011;43233;48.608;8.838;2023-09-08T09:59:41;10.03;;;7.40;;
32292;SDS011;43233;48.608;8.838;2023-09-08T10:02:14;7.43;;;6.83;;
32292;SDS011;43233;48.608;8.838;2023-09-08T10:04:40;8.50;;;6.77;;
32292;SDS011;43233;48.608;8.838;2023-09-08T10:07:06;6.60;;;6.00;;
32292;SDS011;43233;48.608;8.838;2023-09-08T10:09:32;7.20;;;6.50;;
32292;SDS011;43233;48.608;8.838;2023-09-08T10:12:00;6.93;;;6.00;;
32292;SDS011;43233;48.608;8.838;2023-09-08T10:14:37;13.80;;;6.40;;
32292;SDS011;43233;48.608;8.838;2023-09-08T10:17:08;7.20;;;5.77;;
32292;SDS011;43233;48.608;8.838;2023-09-08T10:19:37;12.37;;;6.33;;
32292;SDS011;43233;48.608;8.838;2023-09-08T10:22:06;6.40;;;5.80;;
32292;SDS011;43233;48.608;8.838;2023-09-08T10:24:37;6.57;;;5.83;;
32292;SDS011;43233;48.608;8.838;2023-09-08T10:29:31;8.53;;;6.03;;
32292;SDS011;43233;48.608;8.838;2023-09-08T10:31:57;16.77;;;5.67;;
32292;SDS011;43233;48.608;8.838;2023-09-08T10:34:24;7.70;;;6.37;;
32292;SDS011;43233;48.608;8.838;2023-09-08T10:36:51;6.40;;;5.80;;
32292;SDS011;43233;48.608;8.838;2023-09-08T10:39:33;11.63;;;6.90;;
32292;SDS011;43233;48.608;8.838;2023-09-08T10:47:30;13.17;;;5.80;;
32292;SDS011;43233;48.608;8.838;2023-09-08T10:49:59;9.90;;;7.93;;
32292;SDS011;43233;48.608;8.838;2023-09-08T10:52:25;9.40;;;5.47;;
32292;SDS011;43233;48.608;8.838;2023-09-08T10:54:52;7.10;;;6.40;;
32292;SDS011;43233;48.608;8.838;2023-09-08T10:57:20;6.53;;;5.80;;
32292;SDS011;43233;48.608;8.838;2023-09-08T10:59:56;6.50;;;5.90;;
32292;SDS011;43233;48.608;8.838;2023-09-08T11:05:01;8.07;;;6.10;;
32292;SDS011;43233;48.608;8.838;2023-09-08T11:07:38;7.40;;;5.90;;
32292;SDS011;43233;48.608;8.838;2023-09-08T11:10:05;7.20;;;6.23;;
32292;SDS011;43233;48.608;8.838;2023-09-08T11:12:32;5.57;;;5.07;;
32292;SDS011;43233;48.608;8.838;2023-09-08T11:14:58;6.47;;;5.87;;
32292;SDS011;43233;48.608;8.838;2023-09-08T11:17:30;6.70;;;6.00;;
32292;SDS011;43233;48.608;8.838;2023-09-08T11:20:00;9.10;;;5.00;;
32292;SDS011;43233;48.608;8.838;2023-09-08T11:22:26;6.63;;;6.00;;
32292;SDS011;43233;48.608;8.838;2023-09-08T11:24:55;7.90;;;5.03;;
32292;SDS011;43233;48.608;8.838;2023-09-08T11:27:22;8.83;;;5.27;;
32292;SDS011;43233;48.608;8.838;2023-09-08T11:29:49;5.50;;;5.10;;
32292;SDS011;43233;48.608;8.838;2023-09-08T11:32:15;5.90;;;5.40;;
32292;SDS011;43233;48.608;8.838;2023-09-08T11:34:41;5.43;;;4.97;;
32292;SDS011;43233;48.608;8.838;2023-09-08T11:39:38;7.80;;;5.60;;
32292;SDS011;43233;48.608;8.838;2023-09-08T11:42:05;5.50;;;5.00;;
32292;SDS011;43233;48.608;8.838;2023-09-08T11:44:32;13.40;;;5.87;;
32292;SDS011;43233;48.608;8.838;2023-09-08T11:46:59;7.53;;;5.67;;
32292;SDS011;43233;48.608;8.838;2023-09-08T11:49:26;6.27;;;5.60;;
32292;SDS011;43233;48.608;8.838;2023-09-08T11:51:57;6.47;;;5.87;;
32292;SDS011;43233;48.608;8.838;2023-09-08T11:54:22;8.37;;;5.70;;
32292;SDS011;43233;48.608;8.838;2023-09-08T11:56:48;4.73;;;4.33;;
32292;SDS011;43233;48.608;8.838;2023-09-08T11:59:14;6.67;;;5.30;;
32292;SDS011;43233;48.608;8.838;2023-09-08T12:01:40;7.87;;;5.90;;
32292;SDS011;43233;48.608;8.838;2023-09-08T12:04:06;5.07;;;4.50;;
32292;SDS011;43233;48.608;8.838;2023-09-08T12:06:32;7.10;;;5.27;;
32292;SDS011;43233;48.608;8.838;2023-09-08T12:09:00;5.57;;;5.07;;
32292;SDS011;43233;48.608;8.838;2023-09-08T12:11:34;5.80;;;4.60;;
32292;SDS011;43233;48.608;8.838;2023-09-08T12:14:06;5.17;;;4.77;;
32292;SDS011;43233;48.608;8.838;2023-09-08T12:16:33;16.10;;;5.30;;
32292;SDS011;43233;48.608;8.838;2023-09-08T12:18:59;6.33;;;5.17;;
32292;SDS011;43233;48.608;8.838;2023-09-08T12:21:24;5.80;;;5.30;;
32292;SDS011;43233;48.608;8.838;2023-09-08T12:23:50;5.77;;;4.57;;
32292;SDS011;43233;48.608;8.838;2023-09-08T12:26:17;5.17;;;4.67;;
32292;SDS011;43233;48.608;8.838;2023-09-08T12:28:43;10.30;;;4.90;;
32292;SDS011;43233;48.608;8.838;2023-09-08T12:31:10;5.13;;;4.70;;
32292;SDS011;43233;48.608;8.838;2023-09-08T12:33:37;6.20;;;4.50;;
32292;SDS011;43233;48.608;8.838;2023-09-08T12:38:38;5.43;;;4.93;;
32292;SDS011;43233;48.608;8.838;2023-09-08T12:41:04;4.53;;;4.20;;
32292;SDS011;43233;48.608;8.838;2023-09-08T12:43:30;4.53;;;4.10;;
32292;SDS011;43233;48.608;8.838;2023-09-08T12:45:55;7.57;;;4.43;;
32292;SDS011;43233;48.608;8.838;2023-09-08T12:48:21;10.43;;;5.07;;
32292;SDS011;43233;48.608;8.838;2023-09-08T12:50:47;5.70;;;5.20;;
32292;SDS011;43233;48.608;8.838;2023-09-08T12:53:14;6.13;;;4.80;;
32292;SDS011;43233;48.608;8.838;2023-09-08T12:55:40;11.20;;;4.90;;
32292;SDS011;43233;48.608;8.838;2023-09-08T12:58:05;5.00;;;4.60;;
32292;SDS011;43233;48.608;8.838;2023-09-08T13:00:31;5.47;;;4.97;;
32292;SDS011;43233;48.608;8.838;2023-09-08T13:02:57;6.03;;;4.97;;
32292;SDS011;43233;48.608;8.838;2023-09-08T13:05:22;5.60;;;4.27;;
32292;SDS011;43233;48.608;8.838;2023-09-08T13:07:48;4.90;;;4.47;;
32292;SDS011;43233;48.608;8.838;2023-09-08T13:10:14;8.83;;;5.07;;
32292;SDS011;43233;48.608;8.838;2023-09-08T13:12:40;5.03;;;4.37;;
32292;SDS011;43233;48.608;8.838;2023-09-08T13:15:06;5.37;;;4.87;;
32292;SDS011;43233;48.608;8.838;2023-09-08T13:17:32;5.93;;;4.37;;
32292;SDS011;43233;48.608;8.838;2023-09-08T13:19:58;4.80;;;4.20;;
32292;SDS011;43233;48.608;8.838;2023-09-08T13:22:23;7.40;;;5.10;;
32292;SDS011;43233;48.608;8.838;2023-09-08T13:24:49;10.83;;;4.30;;
32292;SDS011;43233;48.608;8.838;2023-09-08T13:27:14;6.27;;;5.07;;
32292;SDS011;43233;48.608;8.838;2023-09-08T13:29:43;7.90;;;4.53;;
32292;SDS011;43233;48.608;8.838;2023-09-08T13:32:08;8.17;;;5.40;;
32292;SDS011;43233;48.608;8.838;2023-09-08T13:34:34;12.00;;;4.60;;
32292;SDS011;43233;48.608;8.838;2023-09-08T13:37:01;5.87;;;4.43;;
32292;SDS011;43233;48.608;8.838;2023-09-08T13:39:27;7.17;;;4.33;;
32292;SDS011;43233;48.608;8.838;2023-09-08T13:41:54;7.77;;;4.50;;
32292;SDS011;43233;48.608;8.838;2023-09-08T13:44:22;10.57;;;4.72;;
32292;SDS011;43233;48.608;8.838;2023-09-08T13:46:48;6.57;;;3.72;;
32292;SDS011;43233;48.608;8.838;2023-09-08T13:49:15;5.75;;;4.50;;
32292;SDS011;43233;48.608;8.838;2023-09-08T13:51:41;11.70;;;3.95;;
32292;SDS011;43233;48.608;8.838;2023-09-08T13:54:07;12.55;;;4.78;;
32292;SDS011;43233;48.608;8.838;2023-09-08T13:56:34;9.98;;;4.10;;
32292;SDS011;43233;48.608;8.838;2023-09-08T13:59:00;6.70;;;4.22;;
32292;SDS011;43233;48.608;8.838;2023-09-08T14:01:26;9.10;;;4.25;;
32292;SDS011;43233;48.608;8.838;2023-09-08T14:03:54;4.18;;;3.85;;
32292;SDS011;43233;48.608;8.838;2023-09-08T14:06:20;6.20;;;3.67;;
32292;SDS011;43233;48.608;8.838;2023-09-08T14:08:47;6.25;;;4.43;;
32292;SDS011;43233;48.608;8.838;2023-09-08T14:11:13;6.65;;;4.20;;
32292;SDS011;43233;48.608;8.838;2023-09-08T14:13:38;5.07;;;3.85;;
32292;SDS011;43233;48.608;8.838;2023-09-08T14:16:04;5.13;;;4.10;;
32292;SDS011;43233;48.608;8.838;2023-09-08T14:18:29;6.45;;;4.30;;
32292;SDS011;43233;48.608;8.838;2023-09-08T14:20:55;4.90;;;4.40;;
32292;SDS011;43233;48.608;8.838;2023-09-08T14:23:21;4.00;;;3.60;;
32292;SDS011;43233;48.608;8.838;2023-09-08T14:25:47;5.15;;;4.43;;
32292;SDS011;43233;48.608;8.838;2023-09-08T14:28:12;4.60;;;3.60;;
32292;SDS011;43233;48.608;8.838;2023-09-08T14:30:38;4.22;;;3.92;;
32292;SDS011;43233;48.608;8.838;2023-09-08T14:33:05;5.28;;;3.88;;
32292;SDS011;43233;48.608;8.838;2023-09-08T14:35:31;8.30;;;4.07;;
32292;SDS011;43233;48.608;8.838;2023-09-08T14:37:57;5.53;;;4.10;;
32292;SDS011;43233;48.608;8.838;2023-09-08T14:40:23;11.50;;;4.05;;
32292;SDS011;43233;48.608;8.838;2023-09-08T14:42:48;4.90;;;3.80;;
32292;SDS011;43233;48.608;8.838;2023-09-08T14:45:14;4.43;;;3.92;;
32292;SDS011;43233;48.608;8.838;2023-09-08T14:47:40;4.82;;;4.35;;
32292;SDS011;43233;48.608;8.838;2023-09-08T14:50:05;4.53;;;3.30;;
32292;SDS011;43233;48.608;8.838;2023-09-08T14:52:31;5.10;;;4.30;;
32292;SDS011;43233;48.608;8.838;2023-09-08T14:54:57;9.07;;;7.72;;
32292;SDS011;43233;48.608;8.838;2023-09-08T14:57:23;7.95;;;6.53;;
32292;SDS011;43233;48.608;8.838;2023-09-08T14:59:48;4.97;;;4.20;;